createdAt,value
2022-12-28T00:02:37.018Z,1.30
2022-12-28T00:07:20.605Z,1.40
2022-12-28T00:12:04.187Z,1.30
2022-12-28T00:16:49.119Z,1.30
2022-12-28T00:21:38.491Z,1.20
2022-12-28T00:26:22.575Z,1.00
2022-12-28T00:31:06.255Z,0.90
2022-12-28T00:35:56.358Z,0.80
2022-12-28T00:40:39.965Z,0.90
2022-12-28T00:45:23.459Z,0.90
2022-12-28T00:50:08.033Z,0.80
2022-12-28T00:54:53.003Z,0.70
2022-12-28T00:59:36.539Z,0.60
2022-12-28T01:04:20.086Z,0.80
2022-12-28T01:09:03.964Z,0.80
2022-12-28T01:13:50.410Z,0.70
2022-12-28T01:18:33.900Z,0.90
2022-12-28T01:23:17.389Z,0.90
2022-12-28T01:28:00.907Z,0.80
2022-12-28T01:32:45.783Z,0.60
2022-12-28T01:37:29.307Z,0.60
2022-12-28T01:42:18.145Z,0.60
2022-12-28T01:47:04.430Z,0.70
2022-12-28T01:51:55.471Z,1.00
2022-12-28T01:56:39.390Z,1.20
2022-12-28T02:01:23.065Z,1.20
2022-12-28T02:06:10.810Z,1.40
2022-12-28T02:10:57.435Z,2.10
2022-12-28T02:15:40.992Z,2.80
2022-12-28T02:20:27.551Z,3.00
2022-12-28T02:25:37.821Z,3.20
2022-12-28T02:30:23.135Z,3.30
2022-12-28T02:35:10.917Z,3.30
2022-12-28T02:39:57.669Z,3.20
2022-12-28T02:44:58.707Z,2.90
2022-12-28T02:50:06.570Z,2.80
2022-12-28T02:55:19.307Z,2.80
2022-12-28T03:00:08.358Z,2.90
2022-12-28T03:05:11.948Z,2.40
2022-12-28T03:10:06.759Z,2.30
2022-12-28T03:14:54.469Z,2.30
2022-12-28T03:20:00.964Z,2.90
2022-12-28T03:25:04.745Z,3.30
2022-12-28T03:30:13.128Z,3.30
2022-12-28T03:34:56.715Z,3.00
2022-12-28T03:39:46.587Z,2.70
2022-12-28T03:44:36.862Z,2.60
2022-12-28T03:49:20.535Z,2.40
2022-12-28T03:54:04.194Z,2.60
2022-12-28T03:58:48.079Z,2.60
2022-12-28T04:03:33.069Z,2.60
2022-12-28T04:08:16.658Z,2.30
2022-12-28T04:13:00.149Z,2.60
2022-12-28T04:17:43.610Z,2.50
2022-12-28T04:22:28.472Z,2.40
2022-12-28T04:27:11.939Z,2.60
2022-12-28T04:31:55.467Z,3.00
2022-12-28T04:36:39.650Z,2.60
2022-12-28T04:41:24.618Z,2.20
2022-12-28T04:46:09.786Z,1.90
2022-12-28T04:50:53.443Z,1.80
2022-12-28T04:55:36.901Z,1.70
2022-12-28T05:00:22.048Z,1.70
2022-12-28T05:05:05.966Z,1.60
2022-12-28T05:09:49.510Z,1.60
2022-12-28T05:14:37.015Z,2.20
2022-12-28T05:19:22.322Z,3.10
2022-12-28T05:24:06.322Z,2.80
2022-12-28T05:28:50.224Z,2.60
2022-12-28T05:33:36.428Z,2.80
2022-12-28T05:38:21.279Z,3.20
2022-12-28T05:43:04.761Z,3.20
2022-12-28T05:47:48.375Z,3.20
2022-12-28T05:52:32.851Z,3.20
2022-12-28T05:57:17.717Z,3.10
2022-12-28T06:02:01.375Z,3.20
2022-12-28T06:06:46.130Z,3.30
2022-12-28T06:11:44.546Z,3.20
2022-12-28T06:16:31.416Z,3.20
2022-12-28T06:21:17.954Z,3.30
2022-12-28T06:26:02.231Z,3.10
2022-12-28T06:30:52.201Z,3.10
2022-12-28T06:35:42.049Z,3.00
2022-12-28T06:40:39.716Z,2.90
2022-12-28T06:45:29.400Z,2.70
2022-12-28T06:50:12.959Z,2.60
2022-12-28T06:54:57.851Z,2.30
2022-12-28T06:59:41.296Z,2.00
2022-12-28T07:04:24.795Z,1.70
2022-12-28T07:09:10.581Z,1.40
2022-12-28T07:13:56.127Z,1.30
2022-12-28T07:18:39.925Z,1.10
2022-12-28T07:23:23.399Z,0.90
2022-12-28T07:28:06.935Z,0.90
2022-12-28T07:32:51.784Z,1.00
2022-12-28T07:37:35.289Z,1.20
2022-12-28T07:42:18.832Z,1.60
2022-12-28T07:47:02.992Z,1.80
2022-12-28T07:51:50.377Z,1.90
2022-12-28T08:01:19.964Z,1.70
2022-12-28T08:06:08.316Z,1.90
2022-12-28T08:10:53.346Z,2.30
2022-12-28T08:15:37.115Z,3.20
2022-12-28T08:20:20.793Z,3.50
2022-12-28T08:25:07.385Z,3.50
2022-12-28T08:29:52.343Z,3.60
2022-12-28T08:34:35.918Z,3.90
2022-12-28T08:39:19.504Z,3.80
2022-12-28T08:44:03.552Z,3.90
2022-12-28T08:48:50.107Z,4.10
2022-12-28T08:53:34.140Z,4.20
2022-12-28T08:58:17.696Z,4.60
2022-12-28T09:03:01.347Z,4.80
2022-12-28T09:07:46.394Z,4.90
2022-12-28T09:12:29.874Z,5.70
2022-12-28T09:17:13.528Z,5.50
2022-12-28T09:21:57.108Z,5.60
2022-12-28T09:26:42.034Z,5.80
2022-12-28T09:31:27.135Z,5.70
2022-12-28T09:36:10.837Z,5.30
2022-12-28T09:40:54.417Z,5.30
2022-12-28T09:45:40.278Z,5.40
2022-12-28T09:50:30.417Z,5.80
2022-12-28T09:55:16.213Z,6.10
2022-12-28T09:59:59.788Z,6.50
2022-12-28T10:04:49.228Z,6.50
2022-12-28T10:09:35.409Z,7.00
2022-12-28T10:14:21.721Z,8.00
2022-12-28T10:19:08.497Z,8.60
2022-12-28T10:24:29.596Z,8.70
2022-12-28T10:29:02.317Z,9.00
2022-12-28T10:33:53.091Z,9.20
2022-12-28T10:38:36.762Z,9.40
2022-12-28T10:43:21.730Z,7.90
2022-12-28T10:48:11.659Z,8.60
2022-12-28T10:52:59.159Z,8.70
2022-12-28T10:58:18.707Z,8.50
2022-12-28T11:02:48.127Z,8.80
2022-12-28T11:07:34.304Z,10.50
2022-12-28T11:12:19.659Z,11.80
2022-12-28T11:17:16.233Z,12.30
2022-12-28T11:22:01.160Z,12.30
2022-12-28T11:26:45.626Z,13.00
2022-12-28T11:31:33.143Z,14.10
2022-12-28T11:36:19.356Z,14.60
2022-12-28T11:41:04.389Z,15.40
2022-12-28T11:45:56.089Z,15.50
2022-12-28T11:50:54.295Z,15.70
2022-12-28T11:55:57.551Z,15.20
2022-12-28T12:00:49.858Z,14.50
2022-12-28T12:06:03.623Z,13.50
2022-12-28T12:10:48.230Z,11.50
2022-12-28T12:15:40.503Z,11.10
2022-12-28T12:20:35.438Z,11.20
2022-12-28T12:25:25.246Z,11.90
2022-12-28T12:30:16.703Z,13.30
2022-12-28T12:35:04.935Z,14.40
2022-12-28T12:40:17.152Z,16.10
2022-12-28T12:45:10.076Z,17.00
2022-12-28T12:50:16.266Z,16.90
2022-12-28T12:55:17.018Z,18.30
2022-12-28T13:00:11.853Z,19.70
2022-12-28T13:04:55.609Z,19.50
2022-12-28T13:09:39.165Z,17.10
2022-12-28T13:14:25.895Z,14.70
2022-12-28T13:19:19.527Z,14.70
2022-12-28T13:24:03.049Z,15.20
2022-12-28T13:28:52.680Z,13.80
2022-12-28T13:33:37.650Z,13.70
2022-12-28T13:38:21.209Z,14.50
2022-12-28T13:43:38.649Z,14.50
2022-12-28T13:48:23.311Z,15.70
2022-12-28T13:53:13.019Z,16.00
2022-12-28T13:58:00.473Z,16.10
2022-12-28T14:02:44.208Z,15.60
2022-12-28T14:07:30.937Z,15.50
2022-12-28T14:12:17.583Z,14.90
2022-12-28T14:17:04.509Z,14.00
2022-12-28T14:21:48.516Z,13.10
2022-12-28T14:26:32.942Z,12.00
2022-12-28T14:31:26.044Z,10.90
2022-12-28T14:36:20.662Z,10.30
2022-12-28T14:41:05.766Z,9.60
2022-12-28T14:46:06.808Z,9.30
2022-12-28T14:51:00.695Z,9.10
2022-12-28T14:55:59.715Z,8.70
2022-12-28T15:00:56.349Z,8.30
2022-12-28T15:05:44.037Z,8.20
2022-12-28T15:10:29.403Z,8.20
2022-12-28T15:15:13.631Z,8.00
2022-12-28T15:19:57.279Z,7.60
2022-12-28T15:24:45.572Z,7.40
2022-12-28T15:34:34.452Z,6.90
2022-12-28T15:39:18.113Z,6.60
2022-12-28T15:44:01.671Z,6.20
2022-12-28T15:48:47.809Z,6.00
2022-12-28T15:53:31.413Z,5.90
2022-12-28T15:58:14.956Z,5.90
2022-12-28T16:02:58.643Z,5.70
2022-12-28T16:07:43.695Z,5.40
2022-12-28T16:12:27.220Z,5.60
2022-12-28T16:17:10.740Z,5.70
2022-12-28T16:21:54.319Z,5.70
2022-12-28T16:26:39.311Z,5.50
2022-12-28T16:31:24.719Z,5.30
2022-12-28T16:36:13.448Z,5.10
2022-12-28T16:40:57.850Z,4.90
2022-12-28T16:45:44.502Z,4.90
2022-12-28T16:50:28.450Z,4.90
2022-12-28T16:55:12.046Z,4.90
2022-12-28T16:59:55.601Z,4.70
2022-12-28T17:04:40.549Z,4.60
2022-12-28T17:09:24.077Z,4.40
2022-12-28T17:14:09.558Z,4.40
2022-12-28T17:18:53.064Z,4.90
2022-12-28T17:23:40.581Z,5.20
2022-12-28T17:28:24.833Z,5.40
2022-12-28T17:33:08.399Z,5.30
2022-12-28T17:37:52.091Z,4.90
2022-12-28T17:42:37.409Z,4.50
2022-12-28T17:47:21.458Z,5.00
2022-12-28T17:52:05.278Z,5.70
2022-12-28T17:56:49.424Z,5.90
2022-12-28T18:01:34.626Z,5.80
2022-12-28T18:06:18.655Z,5.70
2022-12-28T18:11:04.633Z,5.30
2022-12-28T18:15:50.272Z,5.10
2022-12-28T18:20:35.979Z,5.00
2022-12-28T18:25:19.867Z,4.70
2022-12-28T18:30:04.213Z,4.90
2022-12-28T18:34:48.693Z,5.40
2022-12-28T18:39:34.990Z,5.20
2022-12-28T18:44:19.388Z,5.20
2022-12-28T18:49:03.052Z,5.10
2022-12-28T18:53:51.294Z,5.30
2022-12-28T18:58:38.360Z,5.50
2022-12-28T19:03:22.770Z,5.20
2022-12-28T19:08:07.366Z,4.80
2022-12-28T19:12:51.667Z,4.60
2022-12-28T19:17:36.978Z,4.70
2022-12-28T19:22:21.367Z,4.60
2022-12-28T19:27:05.424Z,4.40
2022-12-28T19:31:49.746Z,4.30
2022-12-28T19:36:35.270Z,4.30
2022-12-28T19:41:19.961Z,4.40
2022-12-28T19:46:05.029Z,4.50
2022-12-28T19:50:48.739Z,4.70
2022-12-28T19:55:35.002Z,4.70
2022-12-28T20:00:20.637Z,4.50
2022-12-28T20:05:04.383Z,4.30
2022-12-28T20:09:51.150Z,4.90
2022-12-28T20:14:36.196Z,5.30
2022-12-28T20:19:19.919Z,5.50
2022-12-28T20:24:04.878Z,5.50
2022-12-28T20:28:51.512Z,5.60
2022-12-28T20:33:37.765Z,5.80
2022-12-28T20:38:21.819Z,5.70
2022-12-28T20:43:22.536Z,5.50
2022-12-28T20:48:06.827Z,5.90
2022-12-28T20:52:54.433Z,5.80
2022-12-28T20:57:38.188Z,5.50
2022-12-28T21:08:09.614Z,5.20
2022-12-28T21:13:44.945Z,6.40
2022-12-28T21:18:30.862Z,7.50
2022-12-28T21:23:14.833Z,7.00
2022-12-28T21:27:58.553Z,6.10
2022-12-28T21:32:42.734Z,6.20
2022-12-28T21:37:36.682Z,7.00
2022-12-28T21:42:20.573Z,7.40
2022-12-28T21:47:08.244Z,7.20
2022-12-28T21:51:51.884Z,7.20
2022-12-28T21:56:38.403Z,7.50
2022-12-28T22:01:39.854Z,7.70
2022-12-28T22:06:23.491Z,7.80
2022-12-28T22:11:24.568Z,8.00
2022-12-28T22:16:09.697Z,8.20
2022-12-28T22:20:54.677Z,8.10
2022-12-28T22:25:38.779Z,8.20
2022-12-28T22:30:22.421Z,8.10
2022-12-28T22:35:08.513Z,8.00
2022-12-28T22:39:52.253Z,8.00
2022-12-28T22:44:36.473Z,7.90
2022-12-28T22:49:20.230Z,7.80
2022-12-28T22:54:05.415Z,8.20
2022-12-28T22:58:49.062Z,8.20
2022-12-28T23:03:33.137Z,8.10
2022-12-28T23:08:16.715Z,7.50
2022-12-28T23:13:01.976Z,7.30
2022-12-28T23:17:45.999Z,7.40
2022-12-28T23:22:48.569Z,7.10
2022-12-28T23:27:35.910Z,6.90
2022-12-28T23:32:21.312Z,6.90
2022-12-28T23:37:04.919Z,6.90
2022-12-28T23:41:51.292Z,6.90
2022-12-28T23:46:34.923Z,6.90
2022-12-28T23:51:19.876Z,6.90
2022-12-28T23:56:03.453Z,7.10
